Date,TemperatureHighF,TemperatureAvgF,TemperatureLowF,DewpointHighF,DewpointAvgF,DewpointLowF,HumidityHigh,HumidityAvg,HumidityLow,PressureMaxIn,PressureMinIn,WindSpeedMaxMPH,WindSpeedAvgMPH,GustSpeedMaxMPH,PrecipitationSumIn
2014-1-1,16.2,10.0,5.9,7.6,0.3,-3.5,72,64,59,29.38,29.30,4,3,9,0.00
2014-1-2,16.2,7.9,-6.0,1.1,-4.1,-14.5,63,56,44,29.50,29.27,4,2,11,0.00
2014-1-3,18.1,5.7,-11.2,10.4,-4.4,-19.5,75,60,47,29.50,28.95,11,5,24,0.00
2014-1-4,30.4,25.5,18.0,25.6,18.0,7.0,87,73,57,29.14,28.87,10,4,20,0.00
2014-1-5,19.8,8.2,-9.6,7.4,-8.0,-22.9,58,45,35,29.22,29.13,7,4,16,0.00
2014-1-6,-9.6,-15.7,-21.3,-22.6,-28.9,-33.8,49,42,33,29.33,29.20,12,8,31,0.00
2014-1-7,6.3,-6.7,-16.1,-12.5,-19.3,-26.3,58,48,36,29.37,29.29,11,4,19,0.00
2014-1-8,14.4,-0.5,-10.1,-6.4,-12.9,-18.7,59,52,36,29.57,29.35,3,0,6,0.00
2014-1-9,25.0,9.8,-9.4,21.7,1.1,-18.1,87,65,52,29.58,29.22,4,2,8,0.00
2014-1-10,37.6,32.4,25.0,37.1,31.1,21.7,99,95,85,29.22,28.61,8,4,14,0.86
2014-1-11,36.1,33.4,29.7,35.7,28.4,22.7,99,83,65,28.91,28.57,5,3,12,0.00
2014-1-12,41.5,33.8,27.3,30.5,26.6,21.6,88,75,56,28.95,28.70,9,5,18,0.00
2014-1-13,43.3,34.0,25.7,32.2,26.7,17.8,90,75,56,28.89,28.67,6,2,11,0.00
2014-1-14,36.3,27.1,18.3,31.5,19.5,10.3,90,73,56,29.04,28.71,10,5,18,0.00
2014-1-15,19.6,15.1,10.2,10.8,3.2,-0.4,72,59,46,29.20,28.90,7,3,17,0.00
2014-1-16,35.8,25.2,13.6,30.6,15.8,1.6,83,68,49,28.90,28.59,9,5,16,0.03
2014-1-17,18.5,13.6,6.4,6.8,1.2,-4.6,64,57,48,29.08,28.85,4,3,9,0.00
2014-1-18,21.4,12.5,5.4,12.2,4.3,-4.0,79,69,58,29.05,28.83,5,2,12,0.00
2014-1-19,36.9,24.4,7.9,26.6,15.2,1.6,76,68,53,28.98,28.66,10,5,18,0.03
2014-1-20,40.8,28.0,9.3,26.1,17.7,-1.4,72,65,48,29.25,28.74,6,2,16,0.03
2014-1-21,9.3,1.7,-4.9,-1.4,-12.6,-16.5,61,47,36,29.43,29.25,7,2,15,0.00
2014-1-22,17.4,6.5,-4.9,3.3,-6.8,-19.6,58,52,41,29.31,29.00,6,4,13,0.00
2014-1-23,7.9,-2.8,-10.1,-10.8,-17.5,-21.6,53,44,37,29.66,29.31,5,3,11,0.00
2014-1-24,29.7,12.5,-10.7,26.6,-0.7,-20.2,88,54,38,29.58,28.58,13,8,25,0.00
2014-1-25,32.9,17.3,5.4,29.2,-0.2,-12.5,90,46,27,28.99,28.56,8,4,18,0.00
2014-1-26,34.2,16.4,0.7,18.3,4.4,-12.5,75,58,41,29.00,28.53,8,5,20,0.02
2014-1-27,0.7,-7.0,-13.4,-12.5,-21.7,-26.6,52,42,32,29.51,29.00,7,5,17,0.00
2014-1-28,5.5,-6.5,-16.8,-14.0,-19.6,-26.0,58,47,34,29.50,29.31,8,4,15,0.00
2014-1-29,23.9,10.4,-6.7,4.0,-5.5,-15.8,59,47,32,29.33,29.04,8,5,20,0.00
2014-1-30,31.5,24.5,18.0,23.5,12.7,1.7,79,61,47,29.05,28.75,11,6,23,0.00
2014-1-31,21.4,15.2,9.5,9.0,1.2,-1.9,68,54,41,29.27,29.05,4,1,6,0.00
2014-2-1,30.0,19.9,14.7,16.7,10.9,2.4,76,68,56,29.21,29.01,3,1,7,0.00
2014-2-2,21.4,11.6,-2.9,10.9,-1.1,-12.6,74,56,40,29.40,29.21,4,1,8,0.03
2014-2-3,22.5,5.7,-9.8,-1.6,-8.6,-18.3,63,50,33,29.47,29.40,4,1,7,0.00
2014-2-4,23.0,15.0,5.7,11.0,2.6,-6.8,76,57,44,29.50,29.24,4,1,9,0.00
2014-2-5,26.4,17.1,2.7,13.2,6.2,-6.9,79,63,41,29.53,29.20,5,3,11,0.00
2014-2-6,10.2,0.0,-7.4,-7.1,-13.0,-16.4,62,50,35,29.55,29.44,7,4,16,0.00
2014-2-7,14.9,3.5,-7.4,-4.7,-9.9,-16.0,63,51,36,29.47,29.38,8,4,15,0.00
2014-2-8,19.4,12.5,7.7,6.8,1.4,-4.9,73,60,51,29.40,29.16,4,2,8,0.00
2014-2-9,20.7,10.0,-2.2,6.4,-1.8,-13.6,74,58,42,29.39,29.22,4,2,9,0.06
2014-2-10,11.5,-0.6,-10.7,-9.7,-14.9,-19.8,57,46,32,29.57,29.39,3,1,9,0.00
2014-2-11,16.2,-0.1,-12.5,-6.9,-14.4,-21.7,56,47,33,29.60,29.44,5,2,11,0.00
2014-2-12,26.1,13.4,-4.0,7.6,-0.2,-13.7,60,53,40,29.44,29.11,5,3,10,0.00
2014-2-13,32.9,22.9,14.5,24.0,9.7,1.6,73,57,41,29.11,28.66,8,4,16,0.00
2014-2-14,24.6,14.1,8.1,4.4,0.7,-3.4,65,55,40,29.09,28.78,4,2,8,0.00
2014-2-15,25.3,11.1,-2.9,8.7,-1.3,-11.4,72,57,36,29.21,29.05,7,2,11,0.00
2014-2-16,29.3,19.8,12.7,11.0,8.2,3.6,76,61,41,29.36,29.06,4,2,9,0.02
2014-2-17,28.9,24.1,20.1,23.1,17.0,10.6,87,74,64,29.33,28.82,10,4,20,0.00
2014-2-18,47.5,33.1,17.2,25.7,22.1,12.2,88,65,40,29.04,28.76,8,3,16,0.22
2014-2-19,45.7,35.2,28.9,26.4,23.5,18.7,80,64,36,29.08,28.80,5,2,10,0.00
2014-2-20,44.4,36.1,33.1,44.2,32.7,26.4,99,88,74,29.02,28.32,15,6,27,0.75
2014-2-21,35.1,27.3,21.0,28.0,12.3,3.9,75,54,40,29.06,28.46,16,9,27,0.00
2014-2-22,33.6,23.1,14.9,10.0,6.4,1.3,61,49,35,29.20,29.00,7,3,13,0.00
2014-2-23,28.8,17.4,10.9,4.6,0.0,-3.2,56,46,33,29.36,29.19,7,3,12,0.00
2014-2-24,26.6,16.0,9.3,3.3,-0.8,-3.3,58,47,32,29.39,29.32,8,2,13,0.00
2014-2-25,20.1,11.7,0.3,0.8,-4.8,-13.6,63,46,33,29.35,29.26,6,3,12,0.00
2014-2-26,15.4,5.9,-6.5,1.3,-10.7,-17.2,54,43,30,29.37,28.79,12,6,22,0.00
2014-2-27,14.7,5.1,-5.1,-2.5,-16.5,-21.5,51,33,22,29.29,28.80,6,2,14,0.00
2014-2-28,27.7,14.7,-5.3,13.9,-0.8,-19.6,60,48,37,29.28,29.06,9,3,17,0.00
2014-3-1,25.7,16.8,8.8,17.7,4.1,-2.9,76,58,34,29.46,29.12,4,2,8,0.00
2014-3-2,14.4,5.5,-2.4,-2.5,-14.6,-23.5,59,36,25,29.72,29.43,4,2,11,0.00
2014-3-3,24.3,7.2,-9.9,1.0,-11.2,-27.6,55,40,30,29.72,29.44,4,2,9,0.09
2014-3-4,32.2,20.0,10.2,7.6,2.5,-4.9,63,47,33,29.45,29.27,5,2,8,0.00
2014-3-5,29.7,19.4,12.2,10.0,5.7,-0.3,72,56,33,29.54,29.34,5,3,14,0.02
2014-3-6,34.5,20.7,11.7,11.3,7.1,3.2,75,57,36,29.51,29.18,6,2,10,0.03
2014-3-7,45.5,32.4,16.3,29.6,18.9,7.3,78,59,35,29.18,28.99,6,2,13,0.00
2014-3-8,38.3,31.3,21.7,29.3,19.8,12.5,84,63,40,29.35,29.11,4,2,9,0.00
2014-3-9,42.4,30.7,15.8,29.9,19.3,8.6,76,63,43,29.34,28.91,10,4,19,0.00
2014-3-10,54.0,44.0,37.8,34.4,30.2,28.3,78,59,39,28.91,28.80,7,4,12,0.00
2014-3-11,51.8,40.4,34.3,33.0,30.7,24.4,86,70,37,28.93,28.80,6,2,11,0.00
2014-3-12,36.7,29.5,18.0,31.4,14.4,1.2,84,54,34,29.22,28.88,6,3,10,0.00
2014-3-13,39.0,28.0,14.9,32.0,17.1,0.2,88,64,46,29.23,28.93,9,4,20,0.00
2014-3-14,51.8,41.7,35.1,31.9,27.7,24.0,87,59,36,28.98,28.72,10,5,16,0.00
2014-3-15,43.0,34.3,26.8,28.2,20.4,13.9,83,59,32,29.35,28.98,5,2,9,0.00
2014-3-16,28.6,22.1,15.3,18.8,5.0,-1.7,70,48,31,29.48,29.28,8,5,15,0.00
2014-3-17,40.5,26.7,13.1,24.0,10.8,1.9,77,53,30,29.28,28.89,8,3,14,0.00
2014-3-18,49.1,38.6,28.9,32.7,28.5,23.6,84,68,50,28.97,28.79,8,4,16,0.00
2014-3-19,40.5,37.6,33.6,38.4,31.0,19.5,96,78,55,29.10,28.70,6,3,16,0.08
2014-3-20,48.0,37.1,29.5,29.0,21.9,16.5,87,57,31,29.17,29.10,4,1,8,0.03
2014-3-21,56.1,41.2,28.6,38.9,28.8,19.0,79,62,44,29.12,28.81,9,4,16,0.00
2014-3-22,42.6,34.7,24.4,27.0,16.7,2.5,67,49,30,29.44,29.01,4,3,10,0.00
2014-3-23,35.2,24.4,16.3,5.5,2.1,-0.2,51,38,26,29.55,29.44,5,2,10,0.00
2014-3-24,41.2,28.4,18.9,23.0,7.9,1.7,76,43,25,29.48,29.17,7,2,14,0.00
2014-3-25,31.8,25.0,18.5,22.2,4.2,-5.2,74,42,23,29.35,29.13,6,3,15,0.00
2014-3-26,41.5,28.4,13.1,18.2,8.5,0.6,61,44,30,29.39,29.04,9,4,19,0.00
2014-3-27,49.5,40.5,34.2,47.8,34.7,17.1,95,81,43,29.05,28.55,9,6,26,0.25
2014-3-28,50.5,39.6,35.6,48.3,30.5,25.2,95,71,54,29.29,28.54,11,2,20,0.03
2014-3-29,49.1,37.9,30.0,27.5,21.9,13.2,78,54,33,29.35,29.28,5,2,10,0.00
2014-3-30,58.3,42.2,26.1,35.3,23.6,12.9,61,49,31,29.35,29.11,8,4,17,0.00
2014-3-31,65.5,53.3,41.4,38.7,33.9,29.5,66,49,32,29.13,28.79,13,7,24,0.00
2014-4-1,55.4,40.0,29.3,39.0,21.1,13.4,57,47,32,29.19,28.79,14,7,35,0.00
2014-4-2,58.1,41.3,28.8,26.1,21.8,16.9,70,48,22,29.28,29.14,6,3,12,0.00
2014-4-3,41.2,39.0,35.8,36.2,28.9,22.6,94,67,54,29.14,28.77,8,5,16,0.00
2014-4-4,43.9,39.1,36.3,43.6,30.1,21.3,99,72,51,29.13,28.60,9,5,17,0.00
2014-4-5,56.7,41.6,28.4,25.2,20.8,16.2,75,47,22,29.30,29.13,5,2,15,0.00
2014-4-6,61.3,45.6,30.2,29.8,25.0,20.3,71,47,22,29.27,29.05,7,2,13,0.00
2014-4-7,64.2,50.8,39.0,41.3,27.2,18.5,76,44,21,29.05,28.76,5,1,10,0.00
2014-4-8,64.2,50.7,40.3,41.7,30.6,20.7,80,51,23,29.05,28.80,4,2,12,0.00
2014-4-9,66.0,51.0,33.6,28.6,23.4,14.9,65,37,15,29.13,28.92,9,3,20,0.00
2014-4-10,68.5,56.3,46.9,34.4,22.3,5.1,50,30,9,29.08,28.78,7,3,14,0.00
2014-4-11,72.0,54.8,35.2,27.6,18.9,9.4,58,29,10,29.15,29.04,8,2,16,0.00
2014-4-12,78.4,62.3,47.8,53.5,41.4,25.2,83,47,32,29.11,28.78,8,2,20,0.47
2014-4-13,64.8,55.3,47.5,57.4,50.0,45.0,98,83,62,28.89,28.54,5,1,17,1.38
2014-4-14,48.0,36.6,29.5,45.5,30.3,23.0,92,78,65,29.12,28.52,6,0,8,0.20
2014-4-15,43.9,32.2,22.8,23.4,14.2,7.5,79,50,26,29.28,29.12,2,0,7,0.08
2014-4-16,55.0,41.3,27.3,26.0,21.8,14.6,68,47,32,29.36,29.14,8,2,21,0.00
2014-4-17,60.4,49.4,40.6,34.6,30.3,22.9,59,48,35,29.35,29.14,6,1,9,0.00
2014-4-18,63.9,47.2,34.3,32.9,27.3,18.7,79,51,21,29.45,29.35,4,1,7,0.00
2014-4-19,70.9,52.6,34.5,33.2,26.3,22.1,66,40,20,29.45,29.26,5,2,9,0.00
2014-4-20,82.8,64.7,48.2,37.2,32.6,22.4,57,34,13,29.30,29.10,4,1,8,0.00
2014-4-21,71.4,62.6,56.7,57.7,48.4,37.0,91,61,36,29.11,28.94,0,0,2,0.08
2014-4-22,64.4,51.8,39.7,43.5,24.8,14.3,61,38,16,29.19,28.96,4,0,8,0.00
2014-4-23,60.4,46.1,33.3,28.1,22.5,16.2,69,43,21,29.27,29.12,5,1,8,0.03
2014-4-24,65.8,52.1,38.1,44.5,33.1,24.4,77,50,29,29.17,28.79,6,3,20,0.17
2014-4-25,71.4,57.3,45.0,46.8,35.9,23.2,88,51,21,28.96,28.74,6,0,9,0.08
2014-4-26,66.9,51.7,40.8,35.4,28.0,22.6,59,42,21,29.11,28.95,5,2,8,0.00
2014-4-27,59.7,49.5,40.8,43.2,33.1,26.2,81,55,30,29.12,28.90,6,4,17,0.22
2014-4-28,52.2,47.5,44.2,45.5,39.1,30.9,85,73,50,28.91,28.65,6,4,19,0.25
2014-4-29,57.6,50.6,45.7,51.6,44.2,40.5,94,80,57,28.76,28.59,6,1,14,0.17
2014-4-30,48.9,46.1,43.7,46.0,37.2,31.0,93,72,57,28.89,28.75,3,0,7,0.00
2014-5-1,48.6,44.6,39.9,41.1,37.8,34.2,87,77,64,28.93,28.77,3,0,8,0.08
2014-5-2,56.3,49.3,45.1,41.7,39.4,35.4,83,69,47,28.93,28.76,3,0,8,0.00
2014-5-3,69.6,57.3,45.1,41.0,32.6,24.0,83,45,20,29.00,28.76,5,1,8,0.00
2014-5-4,62.4,53.5,46.0,32.4,24.6,15.5,48,34,18,29.17,29.00,5,2,10,0.00
2014-5-5,63.5,51.3,43.0,32.0,27.5,21.7,59,41,24,29.14,29.02,6,4,13,0.00
2014-5-6,71.4,54.4,41.7,33.9,30.6,26.5,64,43,21,29.11,28.95,7,4,16,0.00
2014-5-7,79.9,61.0,51.6,50.6,40.6,32.3,71,48,35,28.96,28.84,7,4,14,0.00
2014-5-8,89.6,73.6,55.0,59.8,54.0,43.1,80,54,22,28.94,28.84,8,5,20,0.00
2014-5-9,71.4,64.4,51.4,62.1,48.7,37.6,89,59,34,28.98,28.78,10,5,22,0.05
2014-5-10,81.0,63.4,45.3,43.4,36.9,26.1,77,43,15,29.05,28.96,6,1,12,0.00
2014-5-11,85.5,67.8,57.7,62.5,51.5,38.1,84,58,36,29.04,28.92,5,3,13,0.23
2014-5-12,85.3,73.1,64.4,67.2,62.9,59.2,94,73,43,29.02,28.87,9,4,18,0.74
2014-5-13,64.9,57.0,50.4,63.5,48.2,36.4,95,74,56,29.24,28.90,6,2,12,0.09
2014-5-14,59.4,51.9,45.5,40.1,35.4,28.9,78,55,34,29.28,29.12,3,1,8,0.02
2014-5-15,59.9,49.3,41.7,41.6,35.6,26.5,84,62,31,29.13,29.05,3,1,7,0.31
2014-5-16,56.1,45.2,36.7,34.5,31.6,26.0,85,61,36,29.16,29.09,3,1,8,0.14
2014-5-17,64.6,51.5,39.0,34.6,28.3,21.3,79,45,22,29.24,29.14,6,2,13,0.00
2014-5-18,74.8,59.6,44.6,36.8,31.2,22.5,58,37,15,29.29,29.22,6,3,16,0.00
2014-5-19,69.3,59.2,47.7,44.3,38.9,35.4,66,48,31,29.28,28.99,10,4,22,0.02
2014-5-20,88.9,72.0,59.4,65.2,56.1,42.2,88,60,35,29.01,28.84,7,3,13,0.11
2014-5-21,89.1,75.1,64.2,64.6,49.5,30.0,93,50,14,29.09,28.91,4,1,10,0.03
2014-5-22,75.9,65.1,54.0,45.6,40.8,32.2,66,43,22,29.22,29.09,3,1,9,0.00
2014-5-23,77.9,63.7,50.5,48.1,40.8,31.4,80,48,20,29.29,29.21,2,1,5,0.00
2014-5-24,79.0,64.4,47.1,43.3,37.3,30.0,75,41,20,29.32,29.19,4,1,10,0.00
2014-5-25,87.8,71.2,52.9,49.2,40.3,28.7,62,37,13,29.22,29.07,5,2,14,0.00
2014-5-26,89.8,72.4,64.4,65.5,59.2,46.9,85,66,35,29.14,29.01,6,2,11,0.42
2014-5-27,89.4,74.2,65.5,65.9,62.6,58.1,94,70,38,29.05,28.97,4,2,9,1.41
2014-5-28,79.0,66.8,59.0,63.2,53.2,42.2,93,64,35,29.16,29.01,3,1,6,0.00
2014-5-29,84.9,68.0,56.7,60.0,50.8,42.2,75,56,31,29.21,29.13,3,1,7,0.00
2014-5-30,87.6,71.5,57.0,55.9,47.8,37.0,75,47,21,29.26,29.19,3,1,7,0.00
2014-5-31,91.6,76.1,60.3,53.3,41.6,24.5,63,35,10,29.26,29.11,5,3,12,0.00
2014-6-1,90.5,78.2,69.3,65.6,56.4,48.4,79,48,35,29.15,28.93,9,4,17,0.00
2014-6-2,82.8,75.1,68.2,66.9,62.1,56.5,83,65,43,28.98,28.87,7,4,14,0.17
2014-6-3,84.6,72.5,64.4,60.1,47.9,39.4,66,44,22,29.08,28.94,3,1,8,0.00
2014-6-4,68.5,63.6,57.7,58.2,53.9,49.4,86,72,51,29.03,28.89,2,1,7,0.24
2014-6-5,82.2,67.6,54.3,53.3,42.0,30.8,89,47,16,29.08,29.00,3,1,8,0.00
2014-6-6,86.5,71.5,56.3,44.4,40.4,35.1,59,35,18,29.10,29.02,4,1,8,0.00
2014-6-7,86.2,70.2,59.7,59.2,46.2,33.9,88,46,24,29.08,28.93,5,1,8,0.23
2014-6-8,70.5,64.1,56.5,57.6,50.0,36.0,86,62,36,29.14,28.96,2,0,6,0.02
2014-6-9,83.1,66.6,51.1,54.0,46.4,38.5,67,49,31,29.13,28.99,3,1,6,0.00
2014-6-10,68.7,62.9,59.4,56.7,49.4,40.4,87,62,46,29.03,28.88,2,1,5,0.20
2014-6-11,66.7,62.1,59.2,58.8,56.9,55.2,93,84,72,28.88,28.81,2,1,7,1.02
2014-6-12,78.3,66.5,55.6,61.0,51.2,41.0,89,62,32,28.99,28.85,4,1,11,0.00
2014-6-13,77.2,64.3,52.9,41.9,34.0,18.5,64,37,11,29.10,28.99,3,1,8,0.00
2014-6-14,82.8,68.5,54.7,46.5,37.2,25.8,63,36,14,29.17,29.01,8,3,15,0.00
2014-6-15,84.2,72.9,62.1,58.9,50.3,38.8,59,45,36,29.06,28.85,10,5,25,0.00
2014-6-16,90.0,77.0,63.0,65.4,57.5,49.5,78,54,27,29.13,28.92,7,2,17,0.00
2014-6-17,88.9,77.5,67.1,72.5,63.6,57.4,91,66,36,29.01,28.84,7,2,21,1.22
2014-6-18,78.8,73.6,65.1,71.3,64.6,59.5,87,74,56,29.11,28.94,5,2,10,0.69
2014-6-19,83.5,72.7,64.6,65.4,63.4,60.9,92,75,50,29.16,29.06,4,1,10,0.78
2014-6-20,86.4,74.7,67.5,67.9,64.2,58.4,93,72,46,29.11,29.01,3,1,8,0.24
2014-6-21,81.7,70.5,64.2,69.5,63.2,60.7,89,79,55,29.06,28.94,5,2,10,0.59
2014-6-22,86.0,73.5,61.9,66.1,61.3,57.6,90,68,40,29.02,28.85,4,1,8,0.00
2014-6-23,80.6,73.4,68.0,68.0,63.2,59.7,87,71,51,28.96,28.82,4,1,6,0.16
2014-6-24,86.9,75.9,68.2,68.1,61.6,52.7,91,65,37,29.00,28.93,2,0,6,0.06
2014-6-25,75.9,70.3,66.9,62.1,60.4,58.0,80,71,59,29.12,29.00,2,0,5,0.00
2014-6-26,81.0,70.0,61.2,61.3,58.5,55.0,86,68,47,29.16,29.05,3,1,7,0.00
2014-6-27,88.5,75.8,63.9,64.8,60.3,55.0,80,60,39,29.09,29.01,7,3,15,0.00
2014-6-28,76.5,72.9,70.2,66.6,64.3,62.6,79,75,69,29.08,29.03,6,3,10,0.00
2014-6-29,84.4,79.7,73.4,70.9,64.6,60.3,83,61,47,29.07,28.91,7,4,15,0.00
2014-6-30,76.3,68.8,64.9,71.4,65.2,62.6,93,89,75,29.01,28.70,6,2,13,2.62
2014-7-1,76.6,71.6,65.3,63.2,55.9,53.3,93,59,48,28.88,28.77,4,2,10,0.00
2014-7-2,66.9,63.0,60.1,56.5,53.0,48.6,87,70,58,29.11,28.88,3,1,8,0.17
2014-7-3,78.4,66.5,58.5,57.3,47.4,31.5,89,57,20,29.27,29.10,2,0,6,0.00
2014-7-4,79.9,68.0,55.8,51.8,47.7,41.6,80,51,28,29.36,29.26,2,0,7,0.00
2014-7-5,76.3,68.5,59.5,55.7,49.6,44.2,68,51,38,29.32,29.11,7,3,14,0.00
2014-7-6,84.0,74.5,63.1,68.2,61.9,55.5,79,66,51,29.11,28.80,6,3,14,0.11
2014-7-7,88.5,78.5,71.6,68.9,61.2,51.4,89,60,29,28.87,28.79,5,1,10,0.00
2014-7-8,83.1,74.3,66.9,61.6,53.4,47.2,82,50,34,28.92,28.74,4,2,12,0.14
2014-7-9,81.0,69.7,61.7,54.3,49.0,41.9,74,50,29,29.14,28.92,3,1,8,0.00
2014-7-10,83.3,69.4,57.7,52.5,50.3,46.0,76,53,30,29.24,29.14,4,1,8,0.00
2014-7-11,80.4,70.7,60.4,56.4,50.9,44.6,67,51,32,29.26,29.15,6,2,12,0.00
2014-7-12,80.8,73.7,68.0,70.4,63.3,55.7,85,70,59,29.16,28.93,6,2,12,0.11
2014-7-13,86.0,78.4,67.6,62.6,55.8,47.1,55,46,39,29.01,28.95,3,1,10,0.00
2014-7-14,81.9,69.1,60.6,58.1,47.1,36.4,76,49,21,28.99,28.90,4,1,9,0.03
2014-7-15,70.5,61.0,54.1,51.8,46.9,42.7,74,60,43,29.06,28.96,3,1,8,0.00
2014-7-16,77.0,64.2,52.7,51.4,46.7,40.0,83,56,29,29.11,29.06,2,0,6,0.00
2014-7-17,79.5,67.8,56.8,51.5,46.6,40.7,72,49,27,29.17,29.11,3,0,7,0.00
2014-7-18,73.2,69.9,67.1,54.1,52.5,50.9,57,54,47,29.16,29.15,4,2,6,0.00
2014-7-19,83.5,71.4,59.9,53.9,49.2,42.4,72,48,25,29.17,29.08,4,1,8,0.00
2014-7-20,83.8,77.5,70.3,56.6,54.7,52.4,58,46,36,29.12,29.07,5,3,11,0.00
2014-7-21,88.7,76.4,65.3,63.3,58.5,54.5,71,55,36,29.16,29.08,6,3,12,0.00
2014-7-22,90.1,80.6,71.6,72.4,65.7,61.2,72,61,46,29.11,29.00,6,3,13,0.00
2014-7-23,79.7,71.0,61.0,61.6,49.6,42.2,67,48,29,29.24,29.08,2,1,9,0.00
2014-7-24,82.0,67.9,54.9,49.0,44.9,38.9,73,46,23,29.25,29.09,3,1,6,0.00
2014-7-25,72.0,66.5,60.4,55.9,50.9,42.4,68,57,50,29.14,28.90,8,3,17,0.00
2014-7-26,84.4,75.7,67.6,66.3,60.2,55.0,71,59,46,28.99,28.87,4,1,8,0.00
2014-7-27,85.1,75.4,67.1,57.5,51.3,45.4,66,45,27,29.03,28.84,5,2,14,0.00
2014-7-28,75.4,66.3,57.7,53.0,44.7,36.0,67,47,25,29.18,29.03,3,1,8,0.00
2014-7-29,82.9,69.1,58.6,51.8,47.9,44.3,65,48,29,29.14,29.06,3,1,7,0.00
2014-7-30,81.5,69.7,60.1,53.9,49.2,42.5,73,51,30,29.12,29.07,2,1,9,0.00
2014-7-31,84.2,71.3,59.7,55.5,50.8,46.6,73,51,28,29.11,29.08,4,1,12,0.00
2014-8-1,86.9,72.2,61.5,59.8,54.3,49.4,77,56,29,29.16,29.10,4,1,8,0.22
2014-8-2,85.8,77.7,67.8,60.4,55.4,50.3,73,48,32,29.23,29.15,3,1,7,0.75
2014-8-3,87.3,75.4,65.5,61.0,57.3,52.3,79,56,36,29.22,29.13,4,1,12,0.00
2014-8-4,85.3,73.1,65.8,64.4,59.4,54.7,94,65,37,29.18,29.09,4,1,10,0.66
2014-8-5,78.3,72.7,66.9,72.5,64.4,57.4,96,77,56,29.15,29.08,1,0,4,0.00
2014-8-6,79.9,70.7,61.9,57.9,51.7,46.2,81,54,32,29.16,29.11,2,0,5,0.00
2014-8-7,81.1,71.4,62.1,53.7,48.7,43.7,58,46,29,29.18,29.09,5,1,10,0.00
2014-8-8,80.8,72.3,63.7,55.8,51.3,44.6,72,50,29,29.15,29.11,4,1,12,0.00
2014-8-9,82.2,74.6,66.2,56.2,51.0,46.7,58,44,35,29.19,29.12,2,1,8,0.00
2014-8-10,82.2,73.2,64.9,58.3,54.0,48.3,72,53,33,29.14,29.04,2,0,6,0.00
2014-8-11,84.2,74.8,64.6,72.3,61.1,54.3,89,64,37,29.06,28.88,3,1,11,0.11
2014-8-12,73.0,66.3,61.3,62.6,51.2,45.3,94,61,38,29.06,28.90,3,1,10,0.00
2014-8-13,81.3,69.7,56.1,55.5,50.9,46.0,73,53,37,29.11,29.05,3,1,9,0.00
2014-8-14,75.4,69.0,59.5,49.2,43.2,37.2,61,40,28,29.26,29.11,2,0,5,0.00
2014-8-15,79.2,67.0,53.6,54.0,47.1,41.2,66,50,30,29.16,29.03,5,2,8,0.00
2014-8-16,80.4,71.4,62.4,62.2,58.6,53.2,78,65,50,29.03,28.95,5,1,10,0.00
2014-8-17,77.4,69.9,64.4,61.9,59.6,55.6,86,70,55,29.07,29.00,2,0,5,0.00
2014-8-18,82.8,71.7,62.4,63.1,59.4,55.4,86,67,45,29.03,28.85,5,2,10,0.00
2014-8-19,84.4,76.2,70.7,66.7,60.8,53.7,83,61,38,28.87,28.78,5,2,15,0.00
2014-8-20,86.2,76.2,65.8,63.6,59.0,55.2,75,57,37,29.02,28.87,4,1,10,0.00
2014-8-21,74.8,71.5,67.8,73.3,67.4,62.2,95,88,71,29.07,28.98,4,1,7,2.19
2014-8-22,76.6,73.6,72.5,72.8,71.8,71.2,96,94,84,29.04,28.95,3,1,5,0.03
2014-8-23,78.8,73.1,69.4,72.0,70.2,68.2,96,91,76,29.10,28.97,4,1,6,0.80
2014-8-24,81.0,71.7,68.0,72.1,68.6,66.5,96,91,70,29.07,29.02,3,1,7,0.03
2014-8-25,82.6,74.6,68.4,73.9,66.0,57.4,94,76,46,29.14,29.05,6,1,11,0.47
2014-8-26,75.9,71.3,68.2,69.6,62.3,58.7,95,74,56,29.18,29.11,0,0,2,0.50
2014-8-27,80.6,71.3,64.0,59.9,53.9,47.3,75,56,34,29.24,29.14,2,0,3,0.00
2014-8-28,76.6,69.0,64.2,57.8,54.0,48.7,74,60,39,29.20,29.07,4,1,11,0.00
2014-8-29,83.8,73.9,66.2,71.2,64.1,58.0,93,73,47,29.07,28.90,9,3,16,0.16
2014-8-30,79.2,74.5,69.8,67.7,60.7,57.7,87,63,49,28.98,28.89,7,2,17,0.03
2014-8-31,85.8,75.3,64.8,64.3,59.7,53.4,82,61,35,29.01,28.89,5,2,10,0.00
2014-9-1,82.0,74.2,68.4,66.3,61.8,54.3,92,68,40,28.94,28.70,5,2,14,0.14
2014-9-2,69.1,66.1,63.1,65.9,60.5,51.2,93,84,53,29.04,28.92,1,0,3,0.00
2014-9-3,83.1,73.4,60.4,57.8,54.0,48.0,76,53,32,29.09,28.98,6,3,11,0.00
2014-9-4,80.1,74.1,68.5,69.7,63.4,57.7,91,70,58,29.05,28.93,7,3,13,0.44
2014-9-5,79.9,74.3,63.9,72.5,66.6,56.2,93,78,62,29.10,28.97,6,2,13,0.36
2014-9-6,72.7,64.2,55.6,58.3,49.5,40.0,94,64,32,29.25,29.15,2,0,5,0.00
2014-9-7,78.8,65.7,54.5,51.3,46.0,38.1,76,52,26,29.26,29.16,2,0,5,0.00
2014-9-8,77.9,67.0,56.5,49.4,45.5,39.8,68,48,26,29.19,29.03,6,2,11,0.00
2014-9-9,79.3,71.1,63.1,58.4,52.0,46.0,66,52,38,29.06,28.90,6,2,11,0.00
2014-9-10,74.5,66.3,54.1,72.3,60.6,41.8,93,82,62,28.98,28.60,6,3,12,0.61
2014-9-11,54.1,51.1,48.6,41.8,36.9,34.7,66,58,52,29.34,28.98,2,1,6,0.00
2014-9-12,51.8,47.7,43.2,44.4,38.7,31.9,94,73,47,29.41,29.32,2,0,4,0.11
2014-9-13,58.1,48.5,40.5,47.7,37.5,27.6,95,70,32,29.42,29.33,3,0,6,0.00
2014-9-14,65.1,54.2,41.9,40.1,35.8,33.0,74,52,31,29.36,29.20,5,1,10,0.00
2014-9-15,62.4,54.8,48.6,52.7,44.5,39.0,93,70,49,29.25,29.14,2,0,6,0.05
2014-9-16,65.8,54.4,43.3,52.9,40.1,32.0,94,65,30,29.27,29.13,3,0,6,0.00
2014-9-17,68.9,57.1,45.0,43.9,39.9,36.1,72,55,35,29.15,29.02,3,0,6,0.00
2014-9-18,68.9,58.2,50.0,48.2,44.8,41.5,77,62,39,29.23,29.09,2,1,5,0.00
2014-9-19,74.3,64.5,54.0,52.9,42.8,32.5,87,51,22,29.21,28.98,8,4,17,0.00
2014-9-20,78.1,68.5,61.9,65.5,55.3,43.4,89,63,45,29.01,28.80,6,3,14,0.20
2014-9-21,65.7,58.8,50.2,62.6,47.5,37.1,92,69,38,29.22,28.81,4,1,12,0.00
2014-9-22,67.3,55.7,43.0,40.8,37.1,32.1,75,53,29,29.35,29.21,3,0,6,0.00
2014-9-23,73.9,60.9,47.8,43.8,38.7,32.4,69,47,23,29.38,29.29,3,1,7,0.00
2014-9-24,74.8,64.6,54.9,44.3,38.9,31.2,59,41,21,29.39,29.27,4,2,8,0.00
2014-9-25,78.6,66.8,58.5,47.3,40.5,31.4,59,41,20,29.34,29.25,2,1,6,0.00
2014-9-26,81.3,68.3,56.1,48.6,43.3,37.0,66,44,21,29.31,29.24,4,1,7,0.00
2014-9-27,81.3,69.2,60.4,50.4,44.6,38.1,60,43,22,29.31,29.20,3,1,7,0.00
2014-9-28,81.9,68.4,56.7,52.0,46.0,42.4,69,47,26,29.24,29.13,1,0,3,0.00
2014-9-29,82.6,67.4,55.4,52.9,45.6,40.9,68,49,24,29.13,29.00,3,1,8,0.00
2014-9-30,59.2,52.5,46.8,42.7,37.5,34.3,70,57,41,29.16,29.06,3,1,6,0.00
2014-10-1,71.6,61.3,50.9,46.7,43.1,40.0,71,53,36,29.08,28.92,6,2,10,0.00
2014-10-2,73.0,67.5,64.2,59.5,54.6,46.4,78,64,52,28.95,28.70,6,2,10,0.00
2014-10-3,64.8,52.2,42.8,60.6,42.2,19.3,93,71,36,28.90,28.61,5,3,17,0.66
2014-10-4,47.3,41.9,36.9,40.0,29.0,20.2,89,61,40,28.85,28.76,4,2,12,0.03
2014-10-5,57.0,46.6,37.2,32.6,26.2,19.0,69,47,25,28.83,28.59,5,1,12,0.00
2014-10-6,60.1,51.8,47.1,39.0,29.9,20.4,65,45,24,28.73,28.42,5,2,12,0.00
2014-10-7,65.5,54.7,46.0,41.2,34.4,28.5,68,48,32,28.94,28.70,4,2,10,0.00
2014-10-8,65.7,55.1,45.0,32.6,26.4,17.9,58,36,17,29.10,28.94,5,1,11,0.00
2014-10-9,59.7,52.1,44.8,30.5,23.9,14.1,50,35,17,29.21,29.10,2,0,5,0.00
2014-10-10,59.0,49.5,38.1,31.3,26.4,21.6,63,42,25,29.27,29.19,2,0,6,0.00
2014-10-11,62.2,48.6,35.8,34.4,25.1,19.1,71,44,21,29.32,29.20,2,0,5,0.00
2014-10-12,63.9,52.3,41.7,50.4,33.3,22.0,81,50,25,29.20,28.93,6,2,12,0.03
2014-10-13,65.7,59.8,55.8,63.3,54.8,49.4,93,84,66,28.95,28.58,8,2,19,0.80
2014-10-14,64.9,59.1,50.5,62.7,56.9,48.9,95,93,89,28.79,28.56,8,2,15,0.75
2014-10-15,53.4,51.1,49.6,51.7,49.2,47.7,94,93,93,28.94,28.78,2,1,7,0.05
2014-10-16,60.8,53.5,49.5,56.6,50.3,47.5,94,89,76,28.95,28.71,4,1,11,0.00
2014-10-17,60.8,53.2,48.9,48.4,41.3,37.4,82,65,48,28.99,28.66,4,2,11,0.03
2014-10-18,49.8,46.3,37.9,43.3,34.3,27.9,81,63,45,29.26,28.99,2,1,6,0.00
2014-10-19,57.2,46.7,34.7,36.6,31.7,27.9,78,58,35,29.26,28.93,6,2,14,0.00
2014-10-20,64.8,54.3,46.6,39.6,34.1,27.9,69,48,30,29.09,28.88,3,1,9,0.00
2014-10-21,54.1,48.6,39.6,34.8,30.2,26.9,63,50,37,29.33,29.08,2,1,7,0.00
2014-10-22,59.7,46.6,33.6,35.5,27.2,22.9,76,50,25,29.43,29.28,4,1,7,0.00
2014-10-23,59.9,49.3,38.8,49.0,34.6,27.5,90,59,33,29.29,29.09,7,2,13,0.06
2014-10-24,61.7,54.0,46.6,53.5,45.9,38.3,93,77,48,29.13,28.99,4,1,7,0.00
2014-10-25,70.5,60.2,49.6,50.7,30.5,9.2,79,41,10,29.07,28.97,4,1,11,0.00
2014-10-26,64.8,53.0,36.9,29.6,16.9,8.5,57,27,12,29.11,28.89,4,1,7,0.00
2014-10-27,77.4,65.4,54.3,50.1,40.4,17.3,60,41,23,28.89,28.64,7,4,18,0.00
2014-10-28,66.9,54.3,46.8,47.7,29.0,20.0,53,39,23,29.04,28.71,6,3,17,0.00
2014-10-29,50.7,44.7,35.8,24.2,21.7,20.1,57,40,32,29.20,29.03,4,2,12,0.00
2014-10-30,53.1,42.8,33.4,30.0,25.6,22.0,67,52,35,29.20,29.11,3,0,5,0.00
2014-10-31,46.2,38.6,33.6,30.0,15.1,6.4,69,39,26,29.47,29.12,6,3,14,0.00
2014-11-1,46.4,36.5,28.2,20.0,13.3,6.8,57,39,30,29.52,29.42,4,1,10,0.00
2014-11-2,52.2,42.2,30.0,22.8,15.7,9.0,67,38,20,29.44,29.20,8,4,17,0.00
2014-11-3,63.0,53.3,40.6,47.1,24.7,12.6,71,33,24,29.20,28.97,9,5,17,0.02
2014-11-4,57.4,49.0,41.9,55.1,38.0,27.2,93,68,42,29.14,28.91,8,4,14,0.19
2014-11-5,57.7,48.0,35.4,33.2,28.5,22.0,73,49,27,29.20,28.91,8,3,16,0.00
2014-11-6,50.4,42.1,36.7,32.5,23.0,15.1,59,47,37,29.30,28.87,5,3,14,0.00
2014-11-7,47.7,38.3,28.6,23.3,17.3,12.9,58,43,27,29.29,28.85,6,3,12,0.00
2014-11-8,48.0,42.3,37.0,38.4,22.2,11.1,87,48,26,29.05,28.80,5,2,13,0.03
2014-11-9,52.2,43.6,36.0,29.5,21.5,15.6,54,42,29,29.02,28.82,9,3,17,0.00
2014-11-10,61.9,51.4,42.4,35.4,32.1,26.4,72,49,30,28.89,28.56,10,4,17,0.00
2014-11-11,52.9,37.8,28.6,34.3,27.6,10.1,89,68,45,29.24,28.65,4,2,10,0.28
2014-11-12,30.7,26.8,24.8,11.2,4.7,0.1,48,38,31,29.38,29.23,4,3,12,0.00
2014-11-13,30.0,25.9,22.8,12.7,6.9,2.5,56,44,36,29.38,29.33,4,2,10,0.00
2014-11-14,29.8,24.2,17.6,8.7,3.8,-1.3,52,41,31,29.43,29.37,3,1,6,0.00
2014-11-15,30.9,22.5,14.5,11.4,4.4,-0.8,60,46,30,29.42,29.26,4,1,9,0.00
2014-11-16,31.5,24.7,12.7,18.8,13.3,-0.3,68,61,53,29.26,29.00,6,3,12,0.00
2014-11-17,17.2,12.4,9.1,0.5,-3.3,-7.5,58,48,33,29.06,28.93,7,4,20,0.00
2014-11-18,21.6,14.2,7.0,2.2,-3.8,-6.9,54,44,31,29.17,29.04,7,4,16,0.00
2014-11-19,30.2,22.8,15.3,9.3,2.6,-2.4,49,41,34,29.09,28.85,7,4,18,0.00
2014-11-20,27.1,19.0,11.5,4.4,-2.8,-10.4,56,39,22,29.38,29.06,6,3,15,0.00
2014-11-21,33.4,22.2,7.0,8.4,-4.8,-8.8,54,31,16,29.49,29.20,7,3,14,0.00
2014-11-22,49.3,41.2,32.2,47.2,36.9,8.4,93,86,36,29.20,28.89,5,3,11,0.17
2014-11-23,49.8,48.4,46.2,47.9,46.3,43.7,93,93,89,28.90,28.25,5,3,11,0.58
2014-11-24,47.5,33.3,21.9,45.6,30.5,16.1,95,89,78,28.93,28.22,8,4,20,0.08
2014-11-25,27.0,20.2,14.0,21.2,13.7,6.0,79,75,70,29.26,28.93,6,2,12,0.05
2014-11-26,28.8,21.5,13.1,23.5,15.3,4.9,84,76,69,29.31,29.17,3,1,8,0.00
2014-11-27,28.2,20.8,12.6,18.8,9.7,-0.9,79,62,42,29.47,29.28,3,1,7,0.00
2014-11-28,33.6,25.0,14.2,26.2,12.1,-0.5,78,58,39,29.43,28.93,8,4,16,0.00
2014-11-29,47.7,38.9,30.6,39.4,32.6,24.4,89,78,65,28.93,28.63,8,4,15,0.09
2014-11-30,42.6,33.3,21.2,40.5,24.6,1.1,93,72,40,29.42,28.71,4,2,8,0.00
2014-12-1,21.0,16.0,10.6,1.1,-8.9,-14.5,41,30,23,29.71,29.42,4,2,8,0.00
2014-12-2,34.2,25.2,13.6,18.1,8.3,-5.0,59,48,38,29.59,29.13,8,4,14,0.00
2014-12-3,36.7,27.8,22.8,14.5,7.1,-0.3,61,42,24,29.43,29.12,6,2,11,0.00
2014-12-4,34.0,28.6,21.7,16.9,6.3,-2.0,52,38,30,29.48,29.31,4,2,8,0.00
2014-12-5,39.4,35.0,32.5,27.3,24.9,16.9,75,66,53,29.35,29.23,4,1,7,0.00
2014-12-6,38.7,32.0,25.7,26.4,18.2,13.0,73,57,40,29.71,29.35,5,2,9,0.00
2014-12-7,35.8,30.4,25.2,21.4,14.8,9.7,66,53,36,29.69,29.33,7,3,11,0.00
2014-12-8,37.0,33.8,31.5,35.5,30.5,21.4,94,88,66,29.33,29.05,5,3,15,0.22
2014-12-9,35.2,33.0,30.9,30.9,28.5,20.4,93,84,64,29.48,29.20,3,2,8,0.03
2014-12-10,30.9,27.9,25.3,20.6,16.1,13.2,67,61,57,29.50,29.36,3,1,5,0.00
2014-12-11,33.1,26.8,23.9,18.3,15.4,13.0,70,62,52,29.37,29.30,4,1,8,0.00
2014-12-12,35.8,32.1,24.1,30.2,26.0,15.7,81,78,70,29.41,29.31,4,2,8,0.00
2014-12-13,45.0,39.9,33.4,39.6,34.2,26.7,87,80,76,29.31,29.15,5,2,12,0.00
2014-12-14,47.8,45.3,42.8,45.3,42.4,37.7,92,89,82,29.17,29.04,5,2,10,0.00
2014-12-15,46.2,44.7,42.1,44.0,42.7,40.5,94,92,90,29.06,28.76,6,4,13,0.25
2014-12-16,43.5,37.1,25.9,41.4,32.3,12.5,94,83,56,29.25,28.75,5,2,13,0.05
2014-12-17,25.9,24.8,23.2,12.8,9.2,6.9,57,51,47,29.38,29.25,4,2,9,0.00
2014-12-18,29.3,23.9,18.1,13.4,8.8,5.1,59,52,42,29.39,29.30,3,0,6,0.00
2014-12-19,28.8,27.4,25.3,15.7,14.6,13.0,62,58,55,29.39,29.33,3,0,5,0.00
2014-12-20,32.0,29.4,25.3,22.3,17.9,14.2,67,62,55,29.35,29.29,3,1,6,0.00
2014-12-21,37.2,34.6,31.8,26.3,24.7,22.1,76,67,59,29.29,29.06,7,4,14,0.00
2014-12-22,41.2,35.9,33.1,39.3,31.7,22.6,94,85,61,29.06,28.67,6,4,14,0.31
2014-12-23,44.2,41.2,36.0,42.3,38.9,34.1,94,92,86,28.86,28.62,9,4,15,0.19
2014-12-24,37.8,36.7,35.4,35.9,34.1,29.9,95,90,79,28.84,28.63,4,1,10,0.03
2014-12-25,43.7,37.5,32.7,30.1,24.8,20.8,79,60,46,29.06,28.78,8,5,14,0.00
2014-12-26,50.4,42.6,35.4,34.0,29.2,26.5,76,60,41,29.10,29.03,6,2,9,0.00
2014-12-27,48.7,38.6,27.9,43.9,27.6,12.8,84,65,53,29.22,28.97,10,4,20,0.02
2014-12-28,35.1,25.9,19.6,13.2,9.3,6.5,59,49,34,29.34,29.20,4,2,7,0.00
2014-12-29,30.2,24.2,15.3,11.8,4.0,-4.0,57,42,26,29.59,29.33,3,2,7,0.00
2014-12-30,19.0,11.2,5.7,-3.4,-12.2,-19.8,47,33,20,29.76,29.59,4,2,8,0.00
2014-12-31,18.5,10.3,0.0,-6.6,-12.9,-19.9,43,31,24,29.67,29.20,12,6,20,0.00
2015-1-1,32.4,22.9,14.0,8.0,1.8,-6.6,48,39,31,29.23,29.03,9,6,20,0.00
2015-1-2,34.2,25.6,15.6,14.1,9.3,3.5,61,50,40,29.38,29.22,4,1,7,0.00